sensor_id;sensor_type;location;lat;lon;timestamp;P1;durP1;ratioP1;P2;durP2;ratioP2
75993;SDS011;64680;53.800;9.988;2023-04-19T00:01:21;6.70;;;3.70;;
75993;SDS011;64680;53.800;9.988;2023-04-19T00:06:15;6.70;;;3.28;;
75993;SDS011;64680;53.800;9.988;2023-04-19T00:08:42;6.45;;;3.58;;
75993;SDS011;64680;53.800;9.988;2023-04-19T00:11:08;7.32;;;3.83;;
75993;SDS011;64680;53.800;9.988;2023-04-19T00:13:34;5.88;;;3.63;;
75993;SDS011;64680;53.800;9.988;2023-04-19T00:16:00;6.18;;;3.55;;
75993;SDS011;64680;53.800;9.988;2023-04-19T00:18:25;6.28;;;3.63;;
75993;SDS011;64680;53.800;9.988;2023-04-19T00:20:51;5.60;;;3.20;;
75993;SDS011;64680;53.800;9.988;2023-04-19T00:23:16;7.82;;;3.90;;
75993;SDS011;64680;53.800;9.988;2023-04-19T00:25:44;5.65;;;3.63;;
75993;SDS011;64680;53.800;9.988;2023-04-19T00:28:09;7.15;;;3.35;;
75993;SDS011;64680;53.800;9.988;2023-04-19T00:30:35;7.57;;;3.55;;
75993;SDS011;64680;53.800;9.988;2023-04-19T00:33:01;6.30;;;3.25;;
75993;SDS011;64680;53.800;9.988;2023-04-19T00:35:26;5.60;;;3.20;;
75993;SDS011;64680;53.800;9.988;2023-04-19T00:37:52;5.80;;;3.40;;
75993;SDS011;64680;53.800;9.988;2023-04-19T00:40:17;6.70;;;3.33;;
75993;SDS011;64680;53.800;9.988;2023-04-19T00:42:43;6.95;;;3.60;;
75993;SDS011;64680;53.800;9.988;2023-04-19T00:45:09;6.10;;;3.38;;
75993;SDS011;64680;53.800;9.988;2023-04-19T00:47:35;6.60;;;3.38;;
75993;SDS011;64680;53.800;9.988;2023-04-19T00:50:02;5.65;;;3.15;;
75993;SDS011;64680;53.800;9.988;2023-04-19T00:52:29;6.20;;;3.53;;
75993;SDS011;64680;53.800;9.988;2023-04-19T00:54:56;6.85;;;3.50;;
75993;SDS011;64680;53.800;9.988;2023-04-19T00:57:23;6.05;;;3.05;;
75993;SDS011;64680;53.800;9.988;2023-04-19T00:59:49;6.75;;;3.30;;
75993;SDS011;64680;53.800;9.988;2023-04-19T01:02:15;7.18;;;3.28;;
75993;SDS011;64680;53.800;9.988;2023-04-19T01:04:41;7.45;;;3.47;;
75993;SDS011;64680;53.800;9.988;2023-04-19T01:07:07;7.22;;;3.58;;
75993;SDS011;64680;53.800;9.988;2023-04-19T01:09:33;6.50;;;3.28;;
75993;SDS011;64680;53.800;9.988;2023-04-19T01:12:00;6.90;;;3.15;;
75993;SDS011;64680;53.800;9.988;2023-04-19T01:14:28;5.82;;;3.13;;
75993;SDS011;64680;53.800;9.988;2023-04-19T01:16:53;6.85;;;3.40;;
75993;SDS011;64680;53.800;9.988;2023-04-19T01:19:21;7.25;;;3.72;;
75993;SDS011;64680;53.800;9.988;2023-04-19T01:21:47;6.55;;;3.47;;
75993;SDS011;64680;53.800;9.988;2023-04-19T01:24:13;4.97;;;3.47;;
75993;SDS011;64680;53.800;9.988;2023-04-19T01:26:38;5.60;;;3.33;;
75993;SDS011;64680;53.800;9.988;2023-04-19T01:29:04;7.60;;;3.40;;
75993;SDS011;64680;53.800;9.988;2023-04-19T01:31:29;7.25;;;3.15;;
75993;SDS011;64680;53.800;9.988;2023-04-19T01:33:55;5.90;;;3.38;;
75993;SDS011;64680;53.800;9.988;2023-04-19T01:36:20;6.10;;;3.20;;
75993;SDS011;64680;53.800;9.988;2023-04-19T01:38:46;5.68;;;3.17;;
75993;SDS011;64680;53.800;9.988;2023-04-19T01:41:12;8.55;;;4.03;;
75993;SDS011;64680;53.800;9.988;2023-04-19T01:43:38;5.43;;;3.75;;
75993;SDS011;64680;53.800;9.988;2023-04-19T01:46:03;5.97;;;3.17;;
75993;SDS011;64680;53.800;9.988;2023-04-19T01:48:29;5.38;;;3.30;;
75993;SDS011;64680;53.800;9.988;2023-04-19T01:50:54;7.47;;;3.38;;
75993;SDS011;64680;53.800;9.988;2023-04-19T01:53:20;6.78;;;3.10;;
75993;SDS011;64680;53.800;9.988;2023-04-19T01:55:45;7.82;;;3.78;;
75993;SDS011;64680;53.800;9.988;2023-04-19T01:58:11;5.85;;;3.00;;
75993;SDS011;64680;53.800;9.988;2023-04-19T02:00:37;7.18;;;3.22;;
75993;SDS011;64680;53.800;9.988;2023-04-19T02:03:02;5.47;;;3.20;;
75993;SDS011;64680;53.800;9.988;2023-04-19T02:05:28;6.70;;;3.17;;
75993;SDS011;64680;53.800;9.988;2023-04-19T02:07:53;7.07;;;3.28;;
75993;SDS011;64680;53.800;9.988;2023-04-19T02:10:19;5.25;;;3.00;;
75993;SDS011;64680;53.800;9.988;2023-04-19T02:12:45;6.45;;;3.30;;
75993;SDS011;64680;53.800;9.988;2023-04-19T02:15:10;6.18;;;3.00;;
75993;SDS011;64680;53.800;9.988;2023-04-19T02:17:36;4.85;;;2.72;;
75993;SDS011;64680;53.800;9.988;2023-04-19T02:20:02;5.82;;;3.13;;
75993;SDS011;64680;53.800;9.988;2023-04-19T02:22:28;8.80;;;2.85;;
75993;SDS011;64680;53.800;9.988;2023-04-19T02:24:54;7.60;;;2.92;;
75993;SDS011;64680;53.800;9.988;2023-04-19T02:27:20;5.93;;;2.85;;
75993;SDS011;64680;53.800;9.988;2023-04-19T02:29:45;5.18;;;2.40;;
75993;SDS011;64680;53.800;9.988;2023-04-19T02:32:11;8.30;;;2.80;;
75993;SDS011;64680;53.800;9.988;2023-04-19T02:34:37;4.80;;;2.53;;
75993;SDS011;64680;53.800;9.988;2023-04-19T02:37:02;6.03;;;2.95;;
75993;SDS011;64680;53.800;9.988;2023-04-19T02:39:28;4.45;;;2.28;;
75993;SDS011;64680;53.800;9.988;2023-04-19T02:41:54;6.63;;;2.63;;
75993;SDS011;64680;53.800;9.988;2023-04-19T02:44:20;4.07;;;2.25;;
75993;SDS011;64680;53.800;9.988;2023-04-19T02:46:52;3.55;;;2.67;;
75993;SDS011;64680;53.800;9.988;2023-04-19T02:49:18;5.20;;;2.35;;
75993;SDS011;64680;53.800;9.988;2023-04-19T02:51:45;4.20;;;2.10;;
75993;SDS011;64680;53.800;9.988;2023-04-19T02:54:11;7.00;;;2.60;;
75993;SDS011;64680;53.800;9.988;2023-04-19T02:56:37;5.35;;;2.92;;
75993;SDS011;64680;53.800;9.988;2023-04-19T02:59:03;5.50;;;2.90;;
75993;SDS011;64680;53.800;9.988;2023-04-19T03:01:29;5.15;;;1.90;;
75993;SDS011;64680;53.800;9.988;2023-04-19T03:03:55;3.28;;;1.95;;
75993;SDS011;64680;53.800;9.988;2023-04-19T03:06:21;6.03;;;2.65;;
75993;SDS011;64680;53.800;9.988;2023-04-19T03:08:46;5.35;;;2.55;;
75993;SDS011;64680;53.800;9.988;2023-04-19T03:11:14;4.47;;;2.33;;
75993;SDS011;64680;53.800;9.988;2023-04-19T03:13:40;6.00;;;2.50;;
75993;SDS011;64680;53.800;9.988;2023-04-19T03:16:06;4.85;;;2.38;;
75993;SDS011;64680;53.800;9.988;2023-04-19T03:18:32;5.88;;;2.35;;
75993;SDS011;64680;53.800;9.988;2023-04-19T03:20:58;6.05;;;3.17;;
75993;SDS011;64680;53.800;9.988;2023-04-19T03:23:27;4.15;;;2.50;;
75993;SDS011;64680;53.800;9.988;2023-04-19T03:25:53;4.35;;;2.53;;
75993;SDS011;64680;53.800;9.988;2023-04-19T03:28:18;7.30;;;2.17;;
75993;SDS011;64680;53.800;9.988;2023-04-19T03:30:44;5.97;;;2.47;;
75993;SDS011;64680;53.800;9.988;2023-04-19T03:33:10;5.40;;;2.38;;
75993;SDS011;64680;53.800;9.988;2023-04-19T03:35:35;4.93;;;2.78;;
75993;SDS011;64680;53.800;9.988;2023-04-19T03:38:01;6.03;;;2.35;;
75993;SDS011;64680;53.800;9.988;2023-04-19T03:40:26;4.53;;;2.25;;
75993;SDS011;64680;53.800;9.988;2023-04-19T03:42:52;5.80;;;2.53;;
75993;SDS011;64680;53.800;9.988;2023-04-19T03:45:17;6.30;;;2.30;;
75993;SDS011;64680;53.800;9.988;2023-04-19T03:47:43;6.18;;;2.42;;
75993;SDS011;64680;53.800;9.988;2023-04-19T03:50:09;4.55;;;2.70;;
75993;SDS011;64680;53.800;9.988;2023-04-19T03:52:35;4.50;;;2.75;;
75993;SDS011;64680;53.800;9.988;2023-04-19T03:55:01;3.88;;;1.83;;
75993;SDS011;64680;53.800;9.988;2023-04-19T03:57:27;5.60;;;2.40;;
75993;SDS011;64680;53.800;9.988;2023-04-19T03:59:53;4.38;;;2.53;;
75993;SDS011;64680;53.800;9.988;2023-04-19T04:02:18;5.75;;;2.40;;
75993;SDS011;64680;53.800;9.988;2023-04-19T04:04:44;5.63;;;2.35;;
75993;SDS011;64680;53.800;9.988;2023-04-19T04:07:10;6.03;;;3.15;;
75993;SDS011;64680;53.800;9.988;2023-04-19T04:09:35;4.40;;;2.60;;
75993;SDS011;64680;53.800;9.988;2023-04-19T04:12:01;5.53;;;2.60;;
75993;SDS011;64680;53.800;9.988;2023-04-19T04:14:27;5.40;;;2.17;;
75993;SDS011;64680;53.800;9.988;2023-04-19T04:16:52;4.25;;;1.98;;
75993;SDS011;64680;53.800;9.988;2023-04-19T04:19:18;4.22;;;2.25;;
75993;SDS011;64680;53.800;9.988;2023-04-19T04:21:46;6.72;;;2.50;;
75993;SDS011;64680;53.800;9.988;2023-04-19T04:24:13;4.80;;;2.65;;
75993;SDS011;64680;53.800;9.988;2023-04-19T04:26:38;5.07;;;2.33;;
75993;SDS011;64680;53.800;9.988;2023-04-19T04:29:04;4.18;;;2.55;;
75993;SDS011;64680;53.800;9.988;2023-04-19T04:31:30;4.65;;;2.35;;
75993;SDS011;64680;53.800;9.988;2023-04-19T04:33:56;5.50;;;2.05;;
75993;SDS011;64680;53.800;9.988;2023-04-19T04:36:22;4.90;;;2.55;;
75993;SDS011;64680;53.800;9.988;2023-04-19T04:38:47;4.35;;;2.42;;
75993;SDS011;64680;53.800;9.988;2023-04-19T04:41:13;9.07;;;2.83;;
75993;SDS011;64680;53.800;9.988;2023-04-19T04:43:38;6.00;;;2.63;;
75993;SDS011;64680;53.800;9.988;2023-04-19T04:46:04;5.13;;;2.65;;
75993;SDS011;64680;53.800;9.988;2023-04-19T04:48:30;4.43;;;2.63;;
75993;SDS011;64680;53.800;9.988;2023-04-19T04:50:56;4.63;;;2.25;;
75993;SDS011;64680;53.800;9.988;2023-04-19T04:53:24;3.47;;;2.15;;
75993;SDS011;64680;53.800;9.988;2023-04-19T04:55:53;5.03;;;2.67;;
75993;SDS011;64680;53.800;9.988;2023-04-19T04:58:19;5.30;;;2.10;;
75993;SDS011;64680;53.800;9.988;2023-04-19T05:00:44;6.55;;;2.33;;
75993;SDS011;64680;53.800;9.988;2023-04-19T05:03:11;7.07;;;2.63;;
75993;SDS011;64680;53.800;9.988;2023-04-19T05:05:36;5.07;;;2.42;;
75993;SDS011;64680;53.800;9.988;2023-04-19T05:08:02;4.78;;;2.47;;
75993;SDS011;64680;53.800;9.988;2023-04-19T05:10:28;3.67;;;2.42;;
75993;SDS011;64680;53.800;9.988;2023-04-19T05:12:54;4.78;;;2.00;;
75993;SDS011;64680;53.800;9.988;2023-04-19T05:15:19;3.78;;;1.85;;
75993;SDS011;64680;53.800;9.988;2023-04-19T05:17:45;4.43;;;2.08;;
75993;SDS011;64680;53.800;9.988;2023-04-19T05:20:11;6.70;;;2.42;;
75993;SDS011;64680;53.800;9.988;2023-04-19T05:22:36;3.42;;;1.95;;
75993;SDS011;64680;53.800;9.988;2023-04-19T05:25:02;5.00;;;2.55;;
75993;SDS011;64680;53.800;9.988;2023-04-19T05:27:28;4.35;;;2.33;;
75993;SDS011;64680;53.800;9.988;2023-04-19T05:29:53;5.82;;;2.10;;
75993;SDS011;64680;53.800;9.988;2023-04-19T05:32:19;5.85;;;2.35;;
75993;SDS011;64680;53.800;9.988;2023-04-19T05:34:45;4.35;;;2.35;;
75993;SDS011;64680;53.800;9.988;2023-04-19T05:37:10;4.68;;;2.00;;
75993;SDS011;64680;53.800;9.988;2023-04-19T05:39:36;4.70;;;2.45;;
75993;SDS011;64680;53.800;9.988;2023-04-19T05:42:01;5.82;;;2.60;;
75993;SDS011;64680;53.800;9.988;2023-04-19T05:44:27;5.70;;;1.80;;
75993;SDS011;64680;53.800;9.988;2023-04-19T05:46:53;3.28;;;1.35;;
75993;SDS011;64680;53.800;9.988;2023-04-19T05:49:18;3.17;;;1.48;;
75993;SDS011;64680;53.800;9.988;2023-04-19T05:51:44;2.80;;;1.70;;
75993;SDS011;64680;53.800;9.988;2023-04-19T05:54:10;3.53;;;1.63;;
75993;SDS011;64680;53.800;9.988;2023-04-19T05:56:37;7.28;;;2.10;;
75993;SDS011;64680;53.800;9.988;2023-04-19T05:59:03;2.50;;;1.42;;
75993;SDS011;64680;53.800;9.988;2023-04-19T06:01:29;3.15;;;1.63;;
75993;SDS011;64680;53.800;9.988;2023-04-19T06:03:54;2.53;;;1.45;;
75993;SDS011;64680;53.800;9.988;2023-04-19T06:06:20;3.33;;;1.55;;
75993;SDS011;64680;53.800;9.988;2023-04-19T06:08:46;2.85;;;1.45;;
75993;SDS011;64680;53.800;9.988;2023-04-19T06:11:12;2.90;;;1.73;;
75993;SDS011;64680;53.800;9.988;2023-04-19T06:13:38;1.90;;;1.52;;
75993;SDS011;64680;53.800;9.988;2023-04-19T06:16:03;2.33;;;1.33;;
75993;SDS011;64680;53.800;9.988;2023-04-19T06:18:29;2.15;;;1.60;;
75993;SDS011;64680;53.800;9.988;2023-04-19T06:20:55;2.78;;;1.50;;
75993;SDS011;64680;53.800;9.988;2023-04-19T06:23:21;2.33;;;1.52;;
75993;SDS011;64680;53.800;9.988;2023-04-19T06:25:47;2.28;;;1.23;;
75993;SDS011;64680;53.800;9.988;2023-04-19T06:28:13;2.97;;;1.25;;
75993;SDS011;64680;53.800;9.988;2023-04-19T06:30:39;2.15;;;1.02;;
75993;SDS011;64680;53.800;9.988;2023-04-19T06:33:04;1.27;;;0.82;;
75993;SDS011;64680;53.800;9.988;2023-04-19T06:35:30;2.97;;;1.35;;
75993;SDS011;64680;53.800;9.988;2023-04-19T06:37:59;2.65;;;1.10;;
75993;SDS011;64680;53.800;9.988;2023-04-19T06:40:25;3.25;;;0.80;;
75993;SDS011;64680;53.800;9.988;2023-04-19T06:42:53;4.93;;;1.23;;
75993;SDS011;64680;53.800;9.988;2023-04-19T06:45:19;2.08;;;0.70;;
75993;SDS011;64680;53.800;9.988;2023-04-19T06:47:45;1.40;;;0.80;;
75993;SDS011;64680;53.800;9.988;2023-04-19T06:50:10;1.35;;;0.38;;
75993;SDS011;64680;53.800;9.988;2023-04-19T06:52:37;0.77;;;0.77;;
75993;SDS011;64680;53.800;9.988;2023-04-19T06:55:04;1.13;;;0.40;;
75993;SDS011;64680;53.800;9.988;2023-04-19T06:57:31;0.90;;;0.50;;
75993;SDS011;64680;53.800;9.988;2023-04-19T06:59:56;0.95;;;0.73;;
75993;SDS011;64680;53.800;9.988;2023-04-19T07:02:22;1.80;;;1.23;;
75993;SDS011;64680;53.800;9.988;2023-04-19T07:04:48;0.85;;;0.63;;
75993;SDS011;64680;53.800;9.988;2023-04-19T07:07:14;2.70;;;1.00;;
75993;SDS011;64680;53.800;9.988;2023-04-19T07:09:40;1.15;;;0.30;;
75993;SDS011;64680;53.800;9.988;2023-04-19T07:12:06;0.85;;;0.63;;
75993;SDS011;64680;53.800;9.988;2023-04-19T07:14:32;1.98;;;0.55;;
75993;SDS011;64680;53.800;9.988;2023-04-19T07:16:58;1.23;;;0.43;;
75993;SDS011;64680;53.800;9.988;2023-04-19T07:19:23;1.05;;;0.50;;
75993;SDS011;64680;53.800;9.988;2023-04-19T07:21:49;2.80;;;0.40;;
75993;SDS011;64680;53.800;9.988;2023-04-19T07:24:15;2.20;;;0.30;;
75993;SDS011;64680;53.800;9.988;2023-04-19T07:26:41;1.23;;;0.40;;
75993;SDS011;64680;53.800;9.988;2023-04-19T07:29:06;3.53;;;0.60;;
75993;SDS011;64680;53.800;9.988;2023-04-19T07:31:32;1.08;;;0.50;;
75993;SDS011;64680;53.800;9.988;2023-04-19T07:33:58;3.08;;;0.65;;
75993;SDS011;64680;53.800;9.988;2023-04-19T07:36:23;1.23;;;0.57;;
75993;SDS011;64680;53.800;9.988;2023-04-19T07:38:49;0.75;;;0.40;;
75993;SDS011;64680;53.800;9.988;2023-04-19T07:41:14;1.25;;;0.50;;
75993;SDS011;64680;53.800;9.988;2023-04-19T07:43:40;1.02;;;0.52;;
75993;SDS011;64680;53.800;9.988;2023-04-19T07:46:09;0.88;;;0.20;;
75993;SDS011;64680;53.800;9.988;2023-04-19T07:48:36;1.13;;;0.50;;
75993;SDS011;64680;53.800;9.988;2023-04-19T07:51:12;1.30;;;0.38;;
75993;SDS011;64680;53.800;9.988;2023-04-19T07:53:40;0.73;;;0.50;;
75993;SDS011;64680;53.800;9.988;2023-04-19T07:56:07;2.53;;;0.75;;
75993;SDS011;64680;53.800;9.988;2023-04-19T07:58:34;1.10;;;0.98;;
75993;SDS011;64680;53.800;9.988;2023-04-19T08:01:00;1.98;;;0.85;;
75993;SDS011;64680;53.800;9.988;2023-04-19T08:03:26;2.25;;;0.55;;
75993;SDS011;64680;53.800;9.988;2023-04-19T08:05:52;1.00;;;0.90;;
75993;SDS011;64680;53.800;9.988;2023-04-19T08:08:18;1.67;;;0.63;;
75993;SDS011;64680;53.800;9.988;2023-04-19T08:10:43;0.73;;;0.40;;
75993;SDS011;64680;53.800;9.988;2023-04-19T08:13:09;1.23;;;0.70;;
75993;SDS011;64680;53.800;9.988;2023-04-19T08:15:35;1.52;;;0.47;;
75993;SDS011;64680;53.800;9.988;2023-04-19T08:18:01;2.35;;;1.00;;
75993;SDS011;64680;53.800;9.988;2023-04-19T08:20:28;0.80;;;0.52;;
75993;SDS011;64680;53.800;9.988;2023-04-19T08:22:55;0.73;;;0.43;;
75993;SDS011;64680;53.800;9.988;2023-04-19T08:25:20;2.53;;;0.52;;
75993;SDS011;64680;53.800;9.988;2023-04-19T08:27:50;1.10;;;0.75;;
75993;SDS011;64680;53.800;9.988;2023-04-19T08:30:16;1.88;;;0.50;;
75993;SDS011;64680;53.800;9.988;2023-04-19T08:32:42;0.80;;;0.43;;
75993;SDS011;64680;53.800;9.988;2023-04-19T08:35:07;0.85;;;0.60;;
75993;SDS011;64680;53.800;9.988;2023-04-19T08:37:33;2.78;;;0.55;;
75993;SDS011;64680;53.800;9.988;2023-04-19T08:39:59;2.25;;;0.70;;
75993;SDS011;64680;53.800;9.988;2023-04-19T08:42:25;1.30;;;0.40;;
75993;SDS011;64680;53.800;9.988;2023-04-19T08:44:51;0.98;;;0.43;;
75993;SDS011;64680;53.800;9.988;2023-04-19T08:47:18;0.82;;;0.43;;
75993;SDS011;64680;53.800;9.988;2023-04-19T08:49:45;1.60;;;0.88;;
75993;SDS011;64680;53.800;9.988;2023-04-19T08:52:12;1.40;;;0.85;;
75993;SDS011;64680;53.800;9.988;2023-04-19T08:54:39;0.85;;;0.85;;
75993;SDS011;64680;53.800;9.988;2023-04-19T08:57:06;0.75;;;0.32;;
75993;SDS011;64680;53.800;9.988;2023-04-19T08:59:33;1.00;;;0.50;;
75993;SDS011;64680;53.800;9.988;2023-04-19T09:02:00;1.40;;;0.75;;
75993;SDS011;64680;53.800;9.988;2023-04-19T09:04:26;2.00;;;0.93;;
75993;SDS011;64680;53.800;9.988;2023-04-19T09:06:51;0.98;;;0.82;;
75993;SDS011;64680;53.800;9.988;2023-04-19T09:11:48;2.25;;;0.93;;
75993;SDS011;64680;53.800;9.988;2023-04-19T09:14:14;0.85;;;0.63;;
75993;SDS011;64680;53.800;9.988;2023-04-19T09:16:44;2.72;;;1.10;;
75993;SDS011;64680;53.800;9.988;2023-04-19T09:19:09;1.63;;;0.85;;
75993;SDS011;64680;53.800;9.988;2023-04-19T09:21:40;0.63;;;0.60;;
75993;SDS011;64680;53.800;9.988;2023-04-19T09:24:06;2.17;;;1.15;;
75993;SDS011;64680;53.800;9.988;2023-04-19T09:26:32;2.50;;;0.93;;
75993;SDS011;64680;53.800;9.988;2023-04-19T09:29:02;3.03;;;0.90;;
75993;SDS011;64680;53.800;9.988;2023-04-19T09:31:30;2.25;;;1.00;;
75993;SDS011;64680;53.800;9.988;2023-04-19T09:33:57;0.95;;;0.70;;
75993;SDS011;64680;53.800;9.988;2023-04-19T09:36:35;3.45;;;1.23;;
75993;SDS011;64680;53.800;9.988;2023-04-19T09:39:01;1.90;;;0.93;;
75993;SDS011;64680;53.800;9.988;2023-04-19T09:41:26;1.52;;;1.02;;
75993;SDS011;64680;53.800;9.988;2023-04-19T09:43:52;2.45;;;0.98;;
75993;SDS011;64680;53.800;9.988;2023-04-19T09:46:51;1.85;;;1.10;;
75993;SDS011;64680;53.800;9.988;2023-04-19T09:51:48;2.45;;;1.13;;
75993;SDS011;64680;53.800;9.988;2023-04-19T09:54:16;2.35;;;1.00;;
75993;SDS011;64680;53.800;9.988;2023-04-19T09:56:43;2.05;;;1.15;;
75993;SDS011;64680;53.800;9.988;2023-04-19T09:59:10;2.60;;;1.30;;
75993;SDS011;64680;53.800;9.988;2023-04-19T10:04:09;1.75;;;1.45;;
75993;SDS011;64680;53.800;9.988;2023-04-19T10:06:37;1.40;;;1.10;;
75993;SDS011;64680;53.800;9.988;2023-04-19T10:11:34;3.60;;;1.15;;
75993;SDS011;64680;53.800;9.988;2023-04-19T10:14:03;3.15;;;1.23;;
75993;SDS011;64680;53.800;9.988;2023-04-19T10:16:33;3.10;;;1.25;;
75993;SDS011;64680;53.800;9.988;2023-04-19T10:19:05;1.58;;;1.02;;
75993;SDS011;64680;53.800;9.988;2023-04-19T10:21:32;1.73;;;1.23;;
75993;SDS011;64680;53.800;9.988;2023-04-19T10:23:59;2.33;;;1.20;;
75993;SDS011;64680;53.800;9.988;2023-04-19T10:26:25;2.15;;;1.13;;
75993;SDS011;64680;53.800;9.988;2023-04-19T10:28:52;2.42;;;1.77;;
75993;SDS011;64680;53.800;9.988;2023-04-19T10:31:20;1.85;;;1.10;;
75993;SDS011;64680;53.800;9.988;2023-04-19T10:33:47;2.00;;;1.20;;
75993;SDS011;64680;53.800;9.988;2023-04-19T10:36:15;2.50;;;1.50;;
75993;SDS011;64680;53.800;9.988;2023-04-19T10:38:43;3.38;;;1.48;;
75993;SDS011;64680;53.800;9.988;2023-04-19T10:41:15;3.05;;;1.35;;
75993;SDS011;64680;53.800;9.988;2023-04-19T10:51:20;3.00;;;1.15;;
75993;SDS011;64680;53.800;9.988;2023-04-19T10:54:09;1.90;;;1.52;;
75993;SDS011;64680;53.800;9.988;2023-04-19T10:59:32;2.55;;;1.40;;
75993;SDS011;64680;53.800;9.988;2023-04-19T11:02:00;5.68;;;1.85;;
75993;SDS011;64680;53.800;9.988;2023-04-19T11:09:32;3.20;;;1.85;;
75993;SDS011;64680;53.800;9.988;2023-04-19T11:12:00;4.03;;;1.35;;
75993;SDS011;64680;53.800;9.988;2023-04-19T11:14:32;2.88;;;1.50;;
75993;SDS011;64680;53.800;9.988;2023-04-19T11:17:01;2.35;;;1.17;;
75993;SDS011;64680;53.800;9.988;2023-04-19T11:19:28;1.73;;;1.30;;
75993;SDS011;64680;53.800;9.988;2023-04-19T11:21:56;4.85;;;1.52;;
75993;SDS011;64680;53.800;9.988;2023-04-19T11:24:23;1.15;;;0.88;;
75993;SDS011;64680;53.800;9.988;2023-04-19T11:26:49;3.97;;;1.40;;
75993;SDS011;64680;53.800;9.988;2023-04-19T11:29:15;5.05;;;2.00;;
75993;SDS011;64680;53.800;9.988;2023-04-19T11:31:44;2.35;;;1.23;;
75993;SDS011;64680;53.800;9.988;2023-04-19T11:34:10;2.30;;;1.67;;
75993;SDS011;64680;53.800;9.988;2023-04-19T11:36:46;1.95;;;1.40;;
75993;SDS011;64680;53.800;9.988;2023-04-19T11:39:18;2.40;;;1.35;;
75993;SDS011;64680;53.800;9.988;2023-04-19T11:41:43;3.20;;;1.90;;
75993;SDS011;64680;53.800;9.988;2023-04-19T11:44:17;2.20;;;1.38;;
75993;SDS011;64680;53.800;9.988;2023-04-19T11:47:07;2.60;;;1.30;;
75993;SDS011;64680;53.800;9.988;2023-04-19T11:49:32;1.95;;;1.25;;
75993;SDS011;64680;53.800;9.988;2023-04-19T11:51:59;3.95;;;1.63;;
75993;SDS011;64680;53.800;9.988;2023-04-19T11:54:26;1.88;;;1.60;;
75993;SDS011;64680;53.800;9.988;2023-04-19T11:57:04;2.08;;;1.30;;
75993;SDS011;64680;53.800;9.988;2023-04-19T12:02:05;3.60;;;1.40;;
75993;SDS011;64680;53.800;9.988;2023-04-19T12:04:34;1.75;;;1.33;;
75993;SDS011;64680;53.800;9.988;2023-04-19T12:07:01;3.13;;;1.20;;
75993;SDS011;64680;53.800;9.988;2023-04-19T12:09:28;2.90;;;1.42;;
75993;SDS011;64680;53.800;9.988;2023-04-19T12:11:54;2.35;;;1.52;;
75993;SDS011;64680;53.800;9.988;2023-04-19T12:14:20;3.13;;;1.50;;
75993;SDS011;64680;53.800;9.988;2023-04-19T12:19:35;3.50;;;1.40;;
75993;SDS011;64680;53.800;9.988;2023-04-19T12:22:09;2.72;;;1.35;;
75993;SDS011;64680;53.800;9.988;2023-04-19T12:24:36;2.47;;;1.58;;
75993;SDS011;64680;53.800;9.988;2023-04-19T12:27:03;2.15;;;1.38;;
75993;SDS011;64680;53.800;9.988;2023-04-19T12:29:30;2.38;;;1.23;;
75993;SDS011;64680;53.800;9.988;2023-04-19T12:31:55;4.18;;;1.23;;
75993;SDS011;64680;53.800;9.988;2023-04-19T12:34:21;4.65;;;1.40;;
75993;SDS011;64680;53.800;9.988;2023-04-19T12:36:46;3.03;;;1.25;;
75993;SDS011;64680;53.800;9.988;2023-04-19T12:39:12;1.90;;;1.10;;
75993;SDS011;64680;53.800;9.988;2023-04-19T12:41:37;4.10;;;1.42;;
75993;SDS011;64680;53.800;9.988;2023-04-19T12:44:03;3.63;;;1.13;;
75993;SDS011;64680;53.800;9.988;2023-04-19T12:46:29;1.55;;;1.02;;
75993;SDS011;64680;53.800;9.988;2023-04-19T12:48:54;3.38;;;1.23;;
75993;SDS011;64680;53.800;9.988;2023-04-19T12:51:20;2.08;;;1.23;;
75993;SDS011;64680;53.800;9.988;2023-04-19T12:53:48;2.45;;;1.20;;
75993;SDS011;64680;53.800;9.988;2023-04-19T12:56:14;3.22;;;1.15;;
75993;SDS011;64680;53.800;9.988;2023-04-19T12:58:41;2.55;;;1.40;;
75993;SDS011;64680;53.800;9.988;2023-04-19T13:01:07;2.70;;;1.23;;
75993;SDS011;64680;53.800;9.988;2023-04-19T13:03:32;2.80;;;1.23;;
75993;SDS011;64680;53.800;9.988;2023-04-19T13:06:00;2.63;;;1.45;;
75993;SDS011;64680;53.800;9.988;2023-04-19T13:08:27;1.45;;;0.98;;
75993;SDS011;64680;53.800;9.988;2023-04-19T13:10:54;2.80;;;1.42;;
75993;SDS011;64680;53.800;9.988;2023-04-19T13:13:19;1.88;;;1.10;;
75993;SDS011;64680;53.800;9.988;2023-04-19T13:15:45;4.25;;;1.45;;
75993;SDS011;64680;53.800;9.988;2023-04-19T13:18:11;1.30;;;1.10;;
75993;SDS011;64680;53.800;9.988;2023-04-19T13:20:36;2.20;;;1.33;;
75993;SDS011;64680;53.800;9.988;2023-04-19T13:23:02;2.13;;;1.20;;
75993;SDS011;64680;53.800;9.988;2023-04-19T13:25:27;2.83;;;1.45;;
75993;SDS011;64680;53.800;9.988;2023-04-19T13:27:53;2.47;;;1.33;;
75993;SDS011;64680;53.800;9.988;2023-04-19T13:30:19;2.08;;;0.98;;
75993;SDS011;64680;53.800;9.988;2023-04-19T13:32:44;4.45;;;1.42;;
75993;SDS011;64680;53.800;9.988;2023-04-19T13:35:10;2.17;;;0.98;;
75993;SDS011;64680;53.800;9.988;2023-04-19T13:37:36;2.90;;;1.10;;
75993;SDS011;64680;53.800;9.988;2023-04-19T13:40:01;3.50;;;1.10;;
75993;SDS011;64680;53.800;9.988;2023-04-19T13:42:28;2.70;;;1.50;;
75993;SDS011;64680;53.800;9.988;2023-04-19T13:44:54;1.90;;;1.30;;
75993;SDS011;64680;53.800;9.988;2023-04-19T13:47:19;2.22;;;1.13;;
75993;SDS011;64680;53.800;9.988;2023-04-19T13:49:45;2.03;;;1.17;;
75993;SDS011;64680;53.800;9.988;2023-04-19T13:52:16;2.83;;;1.23;;
75993;SDS011;64680;53.800;9.988;2023-04-19T13:54:42;2.88;;;1.17;;
75993;SDS011;64680;53.800;9.988;2023-04-19T13:57:08;2.03;;;1.05;;
75993;SDS011;64680;53.800;9.988;2023-04-19T13:59:33;5.38;;;0.98;;
75993;SDS011;64680;53.800;9.988;2023-04-19T14:01:59;2.83;;;1.35;;
75993;SDS011;64680;53.800;9.988;2023-04-19T14:04:27;3.45;;;1.00;;
75993;SDS011;64680;53.800;9.988;2023-04-19T14:06:53;2.58;;;1.23;;
75993;SDS011;64680;53.800;9.988;2023-04-19T14:09:19;4.50;;;1.15;;
75993;SDS011;64680;53.800;9.988;2023-04-19T14:11:44;1.67;;;1.25;;
75993;SDS011;64680;53.800;9.988;2023-04-19T14:14:11;4.05;;;1.20;;
75993;SDS011;64680;53.800;9.988;2023-04-19T14:16:36;1.83;;;0.95;;
75993;SDS011;64680;53.800;9.988;2023-04-19T14:19:02;2.55;;;1.25;;
75993;SDS011;64680;53.800;9.988;2023-04-19T14:21:28;4.22;;;1.33;;
75993;SDS011;64680;53.800;9.988;2023-04-19T14:23:55;1.98;;;1.38;;
75993;SDS011;64680;53.800;9.988;2023-04-19T14:26:21;3.42;;;1.25;;
75993;SDS011;64680;53.800;9.988;2023-04-19T14:28:47;4.53;;;1.23;;
75993;SDS011;64680;53.800;9.988;2023-04-19T14:31:13;1.98;;;1.38;;
75993;SDS011;64680;53.800;9.988;2023-04-19T14:33:38;2.78;;;1.45;;
75993;SDS011;64680;53.800;9.988;2023-04-19T14:36:04;2.95;;;1.35;;
75993;SDS011;64680;53.800;9.988;2023-04-19T14:38:30;1.40;;;0.73;;
75993;SDS011;64680;53.800;9.988;2023-04-19T14:40:56;2.22;;;1.50;;
75993;SDS011;64680;53.800;9.988;2023-04-19T14:43:22;2.83;;;1.05;;
75993;SDS011;64680;53.800;9.988;2023-04-19T14:45:47;2.45;;;1.30;;
75993;SDS011;64680;53.800;9.988;2023-04-19T14:48:16;2.20;;;1.10;;
75993;SDS011;64680;53.800;9.988;2023-04-19T14:50:42;2.45;;;1.10;;
75993;SDS011;64680;53.800;9.988;2023-04-19T14:53:08;3.67;;;1.17;;
75993;SDS011;64680;53.800;9.988;2023-04-19T14:55:35;3.47;;;0.82;;
75993;SDS011;64680;53.800;9.988;2023-04-19T14:58:01;4.18;;;1.27;;
75993;SDS011;64680;53.800;9.988;2023-04-19T15:00:27;3.45;;;1.45;;
75993;SDS011;64680;53.800;9.988;2023-04-19T15:02:52;2.63;;;1.25;;
75993;SDS011;64680;53.800;9.988;2023-04-19T15:05:20;2.22;;;1.10;;
75993;SDS011;64680;53.800;9.988;2023-04-19T15:07:47;2.38;;;1.45;;
75993;SDS011;64680;53.800;9.988;2023-04-19T15:10:12;2.80;;;1.02;;
75993;SDS011;64680;53.800;9.988;2023-04-19T15:12:38;1.63;;;0.85;;
75993;SDS011;64680;53.800;9.988;2023-04-19T15:15:04;3.30;;;1.15;;
75993;SDS011;64680;53.800;9.988;2023-04-19T15:17:30;3.38;;;1.10;;